sensor_id;sensor_type;location;lat;lon;timestamp;pressure;altitude;pressure_sealevel;temperature
19102;BMP280;9683;49.028;12.064;2023-10-08T00:02:17;97831.94;;;17.81
19102;BMP280;9683;49.028;12.064;2023-10-08T00:04:48;97837.31;;;17.81
19102;BMP280;9683;49.028;12.064;2023-10-08T00:07:16;97840.00;;;17.81
19102;BMP280;9683;49.028;12.064;2023-10-08T00:09:47;97833.50;;;17.77
19102;BMP280;9683;49.028;12.064;2023-10-08T00:12:13;97841.59;;;17.77
19102;BMP280;9683;49.028;12.064;2023-10-08T00:14:41;97832.16;;;17.74
19102;BMP280;9683;49.028;12.064;2023-10-08T00:17:11;97828.06;;;17.72
19102;BMP280;9683;49.028;12.064;2023-10-08T00:19:39;97823.78;;;17.71
19102;BMP280;9683;49.028;12.064;2023-10-08T00:22:08;97822.69;;;17.72
19102;BMP280;9683;49.028;12.064;2023-10-08T00:24:35;97805.94;;;17.65
19102;BMP280;9683;49.028;12.064;2023-10-08T00:27:06;97817.06;;;17.73
19102;BMP280;9683;49.028;12.064;2023-10-08T00:29:33;97814.13;;;17.75
19102;BMP280;9683;49.028;12.064;2023-10-08T00:31:59;97808.97;;;17.73
19102;BMP280;9683;49.028;12.064;2023-10-08T00:34:38;97800.38;;;17.76
19102;BMP280;9683;49.028;12.064;2023-10-08T00:37:07;97797.19;;;17.79
19102;BMP280;9683;49.028;12.064;2023-10-08T00:39:34;97755.81;;;17.59
19102;BMP280;9683;49.028;12.064;2023-10-08T00:42:03;97791.81;;;17.79
19102;BMP280;9683;49.028;12.064;2023-10-08T00:44:32;97792.06;;;17.78
19102;BMP280;9683;49.028;12.064;2023-10-08T00:47:03;97795.31;;;17.80
19102;BMP280;9683;49.028;12.064;2023-10-08T00:49:31;97793.41;;;17.80
19102;BMP280;9683;49.028;12.064;2023-10-08T00:52:30;97786.44;;;17.79
19102;BMP280;9683;49.028;12.064;2023-10-08T00:55:04;97797.75;;;17.81
19102;BMP280;9683;49.028;12.064;2023-10-08T00:57:35;97792.34;;;17.81
19102;BMP280;9683;49.028;12.064;2023-10-08T01:00:08;97781.22;;;17.73
19102;BMP280;9683;49.028;12.064;2023-10-08T01:02:42;97789.66;;;17.81
19102;BMP280;9683;49.028;12.064;2023-10-08T01:05:15;97788.34;;;17.84
19102;BMP280;9683;49.028;12.064;2023-10-08T01:07:46;97784.34;;;17.86
19102;BMP280;9683;49.028;12.064;2023-10-08T01:10:16;97790.78;;;17.85
19102;BMP280;9683;49.028;12.064;2023-10-08T01:12:46;97776.41;;;17.75
19102;BMP280;9683;49.028;12.064;2023-10-08T01:15:29;97802.13;;;17.88
19102;BMP280;9683;49.028;12.064;2023-10-08T01:18:01;97793.75;;;17.84
19102;BMP280;9683;49.028;12.064;2023-10-08T01:20:30;97798.56;;;17.82
19102;BMP280;9683;49.028;12.064;2023-10-08T01:23:02;97798.25;;;17.78
19102;BMP280;9683;49.028;12.064;2023-10-08T01:25:30;97796.28;;;17.69
19102;BMP280;9683;49.028;12.064;2023-10-08T01:27:56;97802.53;;;17.74
19102;BMP280;9683;49.028;12.064;2023-10-08T01:30:26;97799.78;;;17.69
19102;BMP280;9683;49.028;12.064;2023-10-08T01:33:00;97810.63;;;17.74
19102;BMP280;9683;49.028;12.064;2023-10-08T01:35:29;97806.53;;;17.72
19102;BMP280;9683;49.028;12.064;2023-10-08T01:37:57;97803.28;;;17.70
19102;BMP280;9683;49.028;12.064;2023-10-08T01:40:26;97810.31;;;17.71
19102;BMP280;9683;49.028;12.064;2023-10-08T01:42:54;97815.41;;;17.67
19102;BMP280;9683;49.028;12.064;2023-10-08T01:45:25;97810.00;;;17.67
19102;BMP280;9683;49.028;12.064;2023-10-08T01:47:51;97803.00;;;17.66
19102;BMP280;9683;49.028;12.064;2023-10-08T01:50:20;97807.56;;;17.66
19102;BMP280;9683;49.028;12.064;2023-10-08T01:52:47;97803.25;;;17.65
19102;BMP280;9683;49.028;12.064;2023-10-08T01:55:14;97800.00;;;17.63
19102;BMP280;9683;49.028;12.064;2023-10-08T01:57:46;97808.06;;;17.63
19102;BMP280;9683;49.028;12.064;2023-10-08T02:00:14;97800.50;;;17.60
19102;BMP280;9683;49.028;12.064;2023-10-08T02:02:44;97794.56;;;17.58
19102;BMP280;9683;49.028;12.064;2023-10-08T02:05:10;97801.78;;;17.57
19102;BMP280;9683;49.028;12.064;2023-10-08T02:07:40;97799.94;;;17.58
19102;BMP280;9683;49.028;12.064;2023-10-08T02:10:07;97795.91;;;17.60
19102;BMP280;9683;49.028;12.064;2023-10-08T02:12:36;97797.25;;;17.58
19102;BMP280;9683;49.028;12.064;2023-10-08T02:15:04;97792.69;;;17.58
19102;BMP280;9683;49.028;12.064;2023-10-08T02:17:32;97791.03;;;17.57
19102;BMP280;9683;49.028;12.064;2023-10-08T02:19:58;97792.91;;;17.57
19102;BMP280;9683;49.028;12.064;2023-10-08T02:22:25;97778.31;;;17.53
19102;BMP280;9683;49.028;12.064;2023-10-08T02:24:52;97788.31;;;17.57
19102;BMP280;9683;49.028;12.064;2023-10-08T02:27:20;97794.56;;;17.58
19102;BMP280;9683;49.028;12.064;2023-10-08T02:29:46;97789.19;;;17.58
19102;BMP280;9683;49.028;12.064;2023-10-08T02:32:14;97793.72;;;17.57
19102;BMP280;9683;49.028;12.064;2023-10-08T02:34:41;97786.41;;;17.53
19102;BMP280;9683;49.028;12.064;2023-10-08T02:37:07;97793.09;;;17.50
19102;BMP280;9683;49.028;12.064;2023-10-08T02:39:36;97789.03;;;17.48
19102;BMP280;9683;49.028;12.064;2023-10-08T02:42:05;97802.75;;;17.46
19102;BMP280;9683;49.028;12.064;2023-10-08T02:44:35;97794.34;;;17.42
19102;BMP280;9683;49.028;12.064;2023-10-08T02:47:07;97808.06;;;17.41
19102;BMP280;9683;49.028;12.064;2023-10-08T02:49:35;97808.63;;;17.43
19102;BMP280;9683;49.028;12.064;2023-10-08T02:52:06;97802.13;;;17.39
19102;BMP280;9683;49.028;12.064;2023-10-08T02:54:34;97813.69;;;17.39
19102;BMP280;9683;49.028;12.064;2023-10-08T02:57:03;97802.38;;;17.37
19102;BMP280;9683;49.028;12.064;2023-10-08T02:59:35;97800.75;;;17.36
19102;BMP280;9683;49.028;12.064;2023-10-08T03:02:06;97804.50;;;17.35
19102;BMP280;9683;49.028;12.064;2023-10-08T03:04:41;97804.25;;;17.37
19102;BMP280;9683;49.028;12.064;2023-10-08T03:07:08;97805.03;;;17.32
19102;BMP280;9683;49.028;12.064;2023-10-08T03:09:46;97795.00;;;17.28
19102;BMP280;9683;49.028;12.064;2023-10-08T03:12:15;97812.50;;;17.30
19102;BMP280;9683;49.028;12.064;2023-10-08T03:14:42;97802.84;;;17.29
19102;BMP280;9683;49.028;12.064;2023-10-08T03:17:26;97799.06;;;17.30
19102;BMP280;9683;49.028;12.064;2023-10-08T03:19:55;97802.31;;;17.32
19102;BMP280;9683;49.028;12.064;2023-10-08T03:22:27;97805.03;;;17.32
19102;BMP280;9683;49.028;12.064;2023-10-08T03:24:58;97809.81;;;17.30
19102;BMP280;9683;49.028;12.064;2023-10-08T03:27:39;97815.22;;;17.30
19102;BMP280;9683;49.028;12.064;2023-10-08T03:30:08;97816.03;;;17.31
19102;BMP280;9683;49.028;12.064;2023-10-08T03:32:39;97809.28;;;17.28
19102;BMP280;9683;49.028;12.064;2023-10-08T03:35:08;97807.94;;;17.31
19102;BMP280;9683;49.028;12.064;2023-10-08T03:37:36;97786.25;;;17.16
19102;BMP280;9683;49.028;12.064;2023-10-08T03:40:08;97808.22;;;17.29
19102;BMP280;9683;49.028;12.064;2023-10-08T03:42:50;97825.97;;;17.30
19102;BMP280;9683;49.028;12.064;2023-10-08T03:45:21;97830.28;;;17.31
19102;BMP280;9683;49.028;12.064;2023-10-08T03:48:01;97832.97;;;17.31
19102;BMP280;9683;49.028;12.064;2023-10-08T03:50:32;97827.09;;;17.34
19102;BMP280;9683;49.028;12.064;2023-10-08T03:53:06;97830.28;;;17.31
19102;BMP280;9683;49.028;12.064;2023-10-08T03:55:36;97822.22;;;17.31
19102;BMP280;9683;49.028;12.064;2023-10-08T03:58:06;97819.53;;;17.31
19102;BMP280;9683;49.028;12.064;2023-10-08T04:00:37;97825.16;;;17.30
19102;BMP280;9683;49.028;12.064;2023-10-08T04:03:07;97828.13;;;17.28
19102;BMP280;9683;49.028;12.064;2023-10-08T04:05:38;97812.22;;;17.27
19102;BMP280;9683;49.028;12.064;2023-10-08T04:08:25;97811.91;;;17.23
19102;BMP280;9683;49.028;12.064;2023-10-08T04:11:08;97819.72;;;17.25
19102;BMP280;9683;49.028;12.064;2023-10-08T04:13:53;97825.13;;;17.25
19102;BMP280;9683;49.028;12.064;2023-10-08T04:16:19;97834.47;;;17.22
19102;BMP280;9683;49.028;12.064;2023-10-08T04:18:46;97836.63;;;17.20
19102;BMP280;9683;49.028;12.064;2023-10-08T04:21:18;97851.94;;;17.20
19102;BMP280;9683;49.028;12.064;2023-10-08T04:23:46;97847.88;;;17.17
19102;BMP280;9683;49.028;12.064;2023-10-08T04:26:16;97850.00;;;17.15
19102;BMP280;9683;49.028;12.064;2023-10-08T04:28:43;97842.50;;;17.17
19102;BMP280;9683;49.028;12.064;2023-10-08T04:31:13;97840.94;;;17.21
19102;BMP280;9683;49.028;12.064;2023-10-08T04:33:50;97825.59;;;17.22
19102;BMP280;9683;49.028;12.064;2023-10-08T04:36:18;97824.38;;;17.29
19102;BMP280;9683;49.028;12.064;2023-10-08T04:38:45;97818.19;;;17.34
19102;BMP280;9683;49.028;12.064;2023-10-08T04:41:14;97840.63;;;17.39
19102;BMP280;9683;49.028;12.064;2023-10-08T04:43:44;97840.91;;;17.43
19102;BMP280;9683;49.028;12.064;2023-10-08T04:46:10;97846.38;;;17.48
19102;BMP280;9683;49.028;12.064;2023-10-08T04:48:45;97842.84;;;17.48
19102;BMP280;9683;49.028;12.064;2023-10-08T04:51:12;97829.59;;;17.41
19102;BMP280;9683;49.028;12.064;2023-10-08T04:53:40;97845.91;;;17.56
19102;BMP280;9683;49.028;12.064;2023-10-08T04:56:11;97841.59;;;17.55
19102;BMP280;9683;49.028;12.064;2023-10-08T04:58:43;97844.97;;;17.62
19102;BMP280;9683;49.028;12.064;2023-10-08T05:01:12;97833.28;;;17.57
19102;BMP280;9683;49.028;12.064;2023-10-08T05:03:46;97848.47;;;17.63
19102;BMP280;9683;49.028;12.064;2023-10-08T05:06:22;97857.91;;;17.65
19102;BMP280;9683;49.028;12.064;2023-10-08T05:09:07;97852.00;;;17.68
19102;BMP280;9683;49.028;12.064;2023-10-08T05:11:49;97856.56;;;17.68
19102;BMP280;9683;49.028;12.064;2023-10-08T05:14:34;97850.69;;;17.71
19102;BMP280;9683;49.028;12.064;2023-10-08T05:17:06;97844.81;;;17.74
19102;BMP280;9683;49.028;12.064;2023-10-08T05:19:36;97843.97;;;17.73
19102;BMP280;9683;49.028;12.064;2023-10-08T05:22:19;97837.53;;;17.74
19102;BMP280;9683;49.028;12.064;2023-10-08T05:25:10;97845.38;;;17.76
19102;BMP280;9683;49.028;12.064;2023-10-08T05:27:52;97842.41;;;17.77
19102;BMP280;9683;49.028;12.064;2023-10-08T05:30:34;97850.50;;;17.77
19102;BMP280;9683;49.028;12.064;2023-10-08T05:33:06;97861.56;;;17.81
19102;BMP280;9683;49.028;12.064;2023-10-08T05:35:38;97850.78;;;17.81
19102;BMP280;9683;49.028;12.064;2023-10-08T05:38:21;97842.16;;;17.79
19102;BMP280;9683;49.028;12.064;2023-10-08T05:41:26;97836.78;;;17.79
19102;BMP280;9683;49.028;12.064;2023-10-08T05:44:04;97839.47;;;17.79
19102;BMP280;9683;49.028;12.064;2023-10-08T05:46:49;97841.91;;;17.80
19102;BMP280;9683;49.028;12.064;2023-10-08T05:49:32;97837.09;;;17.82
19102;BMP280;9683;49.028;12.064;2023-10-08T05:52:07;97833.56;;;17.82
19102;BMP280;9683;49.028;12.064;2023-10-08T05:54:51;97818.44;;;17.76
19102;BMP280;9683;49.028;12.064;2023-10-08T05:57:36;97829.31;;;17.86
19102;BMP280;9683;49.028;12.064;2023-10-08T06:00:06;97827.66;;;17.85
19102;BMP280;9683;49.028;12.064;2023-10-08T06:03:03;97827.41;;;17.86
19102;BMP280;9683;49.028;12.064;2023-10-08T06:05:37;97836.06;;;17.89
19102;BMP280;9683;49.028;12.064;2023-10-08T06:08:29;97829.59;;;17.90
19102;BMP280;9683;49.028;12.064;2023-10-08T06:11:14;97825.31;;;17.89
19102;BMP280;9683;49.028;12.064;2023-10-08T06:13:54;97824.22;;;17.90
19102;BMP280;9683;49.028;12.064;2023-10-08T06:16:26;97835.56;;;17.92
19102;BMP280;9683;49.028;12.064;2023-10-08T06:19:06;97824.97;;;17.85
19102;BMP280;9683;49.028;12.064;2023-10-08T06:21:35;97822.16;;;17.97
19102;BMP280;9683;49.028;12.064;2023-10-08T06:24:02;97835.63;;;17.97
19102;BMP280;9683;49.028;12.064;2023-10-08T06:26:34;97802.88;;;17.83
19102;BMP280;9683;49.028;12.064;2023-10-08T06:29:05;97812.44;;;17.96
19102;BMP280;9683;49.028;12.064;2023-10-08T06:31:44;97814.91;;;18.02
19102;BMP280;9683;49.028;12.064;2023-10-08T06:34:16;97826.53;;;18.08
19102;BMP280;9683;49.028;12.064;2023-10-08T06:36:42;97820.34;;;18.07
19102;BMP280;9683;49.028;12.064;2023-10-08T06:39:09;97823.03;;;18.07
19102;BMP280;9683;49.028;12.064;2023-10-08T06:41:38;97820.63;;;18.11
19102;BMP280;9683;49.028;12.064;2023-10-08T06:44:09;97821.75;;;18.15
19102;BMP280;9683;49.028;12.064;2023-10-08T06:46:39;97833.91;;;18.17
19102;BMP280;9683;49.028;12.064;2023-10-08T06:49:08;97842.00;;;18.22
19102;BMP280;9683;49.028;12.064;2023-10-08T06:51:37;97839.84;;;18.19
19102;BMP280;9683;49.028;12.064;2023-10-08T06:54:04;97847.44;;;18.27
19102;BMP280;9683;49.028;12.064;2023-10-08T06:56:35;97860.69;;;18.29
19102;BMP280;9683;49.028;12.064;2023-10-08T06:59:01;97865.56;;;18.32
19102;BMP280;9683;49.028;12.064;2023-10-08T07:01:30;97863.72;;;18.38
19102;BMP280;9683;49.028;12.064;2023-10-08T07:04:04;97859.69;;;18.40
19102;BMP280;9683;49.028;12.064;2023-10-08T07:06:32;97856.50;;;18.43
19102;BMP280;9683;49.028;12.064;2023-10-08T07:09:00;97863.78;;;18.48
19102;BMP280;9683;49.028;12.064;2023-10-08T07:11:30;97862.72;;;18.49
19102;BMP280;9683;49.028;12.064;2023-10-08T07:14:00;97870.81;;;18.49
19102;BMP280;9683;49.028;12.064;2023-10-08T07:16:26;97876.78;;;18.51
19102;BMP280;9683;49.028;12.064;2023-10-08T07:18:54;97889.53;;;18.55
19102;BMP280;9683;49.028;12.064;2023-10-08T07:21:27;97883.03;;;18.56
19102;BMP280;9683;49.028;12.064;2023-10-08T07:23:55;97868.19;;;18.54
19102;BMP280;9683;49.028;12.064;2023-10-08T07:26:25;97865.69;;;18.47
19102;BMP280;9683;49.028;12.064;2023-10-08T07:29:01;97875.38;;;18.48
19102;BMP280;9683;49.028;12.064;2023-10-08T07:31:30;97882.13;;;18.46
19102;BMP280;9683;49.028;12.064;2023-10-08T07:34:00;97875.09;;;18.45
19102;BMP280;9683;49.028;12.064;2023-10-08T07:36:41;97891.28;;;18.45
19102;BMP280;9683;49.028;12.064;2023-10-08T07:39:09;97894.78;;;18.45
19102;BMP280;9683;49.028;12.064;2023-10-08T07:41:48;97899.66;;;18.48
19102;BMP280;9683;49.028;12.064;2023-10-08T07:44:15;97905.03;;;18.48
19102;BMP280;9683;49.028;12.064;2023-10-08T07:46:42;97928.81;;;18.51
19102;BMP280;9683;49.028;12.064;2023-10-08T07:49:10;97930.22;;;18.54
19102;BMP280;9683;49.028;12.064;2023-10-08T07:51:39;97928.09;;;18.56
19102;BMP280;9683;49.028;12.064;2023-10-08T07:54:06;97904.13;;;18.59
19102;BMP280;9683;49.028;12.064;2023-10-08T07:56:35;97910.63;;;18.63
19102;BMP280;9683;49.028;12.064;2023-10-08T07:59:03;97905.75;;;18.65
19102;BMP280;9683;49.028;12.064;2023-10-08T08:01:34;97899.31;;;18.66
19102;BMP280;9683;49.028;12.064;2023-10-08T08:04:02;97902.56;;;18.68
19102;BMP280;9683;49.028;12.064;2023-10-08T08:06:30;97912.03;;;18.71
19102;BMP280;9683;49.028;12.064;2023-10-08T08:08:59;97914.16;;;18.69
19102;BMP280;9683;49.028;12.064;2023-10-08T08:11:25;97917.88;;;18.63
19102;BMP280;9683;49.028;12.064;2023-10-08T08:13:52;97910.03;;;18.61
19102;BMP280;9683;49.028;12.064;2023-10-08T08:16:18;97920.06;;;18.66
19102;BMP280;9683;49.028;12.064;2023-10-08T08:18:46;97919.81;;;18.67
19102;BMP280;9683;49.028;12.064;2023-10-08T08:21:14;97938.41;;;18.69
19102;BMP280;9683;49.028;12.064;2023-10-08T08:23:43;97915.84;;;18.48
19102;BMP280;9683;49.028;12.064;2023-10-08T08:26:18;97933.09;;;18.47
19102;BMP280;9683;49.028;12.064;2023-10-08T08:28:54;97962.63;;;18.59
19102;BMP280;9683;49.028;12.064;2023-10-08T08:31:22;97975.28;;;18.58
19102;BMP280;9683;49.028;12.064;2023-10-08T08:33:50;97958.34;;;18.63
19102;BMP280;9683;49.028;12.064;2023-10-08T08:36:22;97966.50;;;18.68
19102;BMP280;9683;49.028;12.064;2023-10-08T08:38:50;97961.94;;;18.73
19102;BMP280;9683;49.028;12.064;2023-10-08T08:41:17;97976.53;;;18.77
19102;BMP280;9683;49.028;12.064;2023-10-08T08:43:44;97973.63;;;18.84
19102;BMP280;9683;49.028;12.064;2023-10-08T08:46:13;97974.50;;;18.90
19102;BMP280;9683;49.028;12.064;2023-10-08T08:48:42;97974.78;;;18.93
19102;BMP280;9683;49.028;12.064;2023-10-08T08:51:09;97984.00;;;19.02
19102;BMP280;9683;49.028;12.064;2023-10-08T08:53:37;97992.44;;;19.06
19102;BMP280;9683;49.028;12.064;2023-10-08T08:56:06;97991.66;;;19.10
19102;BMP280;9683;49.028;12.064;2023-10-08T08:58:34;97993.53;;;19.10
19102;BMP280;9683;49.028;12.064;2023-10-08T09:01:01;97987.88;;;19.11
19102;BMP280;9683;49.028;12.064;2023-10-08T09:03:28;97996.22;;;19.10
19102;BMP280;9683;49.028;12.064;2023-10-08T09:05:56;98004.91;;;19.17
19102;BMP280;9683;49.028;12.064;2023-10-08T09:08:27;98013.25;;;19.10
19102;BMP280;9683;49.028;12.064;2023-10-08T09:10:59;98005.97;;;19.16
19102;BMP280;9683;49.028;12.064;2023-10-08T09:13:28;97980.63;;;19.17
19102;BMP280;9683;49.028;12.064;2023-10-08T09:16:03;97990.66;;;19.21
19102;BMP280;9683;49.028;12.064;2023-10-08T09:18:30;97973.63;;;19.21
19102;BMP280;9683;49.028;12.064;2023-10-08T09:21:07;97965.28;;;19.28
19102;BMP280;9683;49.028;12.064;2023-10-08T09:23:39;97958.84;;;19.34
19102;BMP280;9683;49.028;12.064;2023-10-08T09:26:08;97955.91;;;19.40
19102;BMP280;9683;49.028;12.064;2023-10-08T09:28:36;97953.88;;;19.52
19102;BMP280;9683;49.028;12.064;2023-10-08T09:31:04;97945.78;;;19.57
19102;BMP280;9683;49.028;12.064;2023-10-08T09:33:32;97937.69;;;19.57
19102;BMP280;9683;49.028;12.064;2023-10-08T09:35:59;97932.03;;;19.64
19102;BMP280;9683;49.028;12.064;2023-10-08T09:38:28;97925.03;;;19.68
19102;BMP280;9683;49.028;12.064;2023-10-08T09:40:57;97919.38;;;19.70
19102;BMP280;9683;49.028;12.064;2023-10-08T09:43:24;97923.97;;;19.69
19102;BMP280;9683;49.028;12.064;2023-10-08T09:45:55;97918.28;;;19.71
19102;BMP280;9683;49.028;12.064;2023-10-08T09:48:29;97908.81;;;19.68
19102;BMP280;9683;49.028;12.064;2023-10-08T09:50:58;97920.16;;;19.60
19102;BMP280;9683;49.028;12.064;2023-10-08T09:53:31;97911.47;;;19.58
19102;BMP280;9683;49.028;12.064;2023-10-08T09:56:13;97921.97;;;19.49
19102;BMP280;9683;49.028;12.064;2023-10-08T09:58:41;97931.31;;;19.32
19102;BMP280;9683;49.028;12.064;2023-10-08T10:01:10;97933.47;;;19.30
19102;BMP280;9683;49.028;12.064;2023-10-08T10:03:37;97974.47;;;19.27
19102;BMP280;9683;49.028;12.064;2023-10-08T10:06:11;97984.19;;;19.28
19102;BMP280;9683;49.028;12.064;2023-10-08T10:08:41;97978.78;;;19.22
19102;BMP280;9683;49.028;12.064;2023-10-08T10:11:07;97981.19;;;19.24
19102;BMP280;9683;49.028;12.064;2023-10-08T10:13:38;98001.44;;;19.21
19102;BMP280;9683;49.028;12.064;2023-10-08T10:16:05;98007.88;;;19.15
19102;BMP280;9683;49.028;12.064;2023-10-08T10:18:34;98007.31;;;19.13
19102;BMP280;9683;49.028;12.064;2023-10-08T10:21:28;98031.03;;;19.11
19102;BMP280;9683;49.028;12.064;2023-10-08T10:23:56;98020.25;;;19.11
19102;BMP280;9683;49.028;12.064;2023-10-08T10:26:26;98004.34;;;19.10
19102;BMP280;9683;49.028;12.064;2023-10-08T10:29:19;98005.50;;;19.19
19102;BMP280;9683;49.028;12.064;2023-10-08T10:31:47;98001.88;;;19.08
19102;BMP280;9683;49.028;12.064;2023-10-08T10:34:18;98015.75;;;19.22
19102;BMP280;9683;49.028;12.064;2023-10-08T10:36:45;98004.66;;;19.18
19102;BMP280;9683;49.028;12.064;2023-10-08T10:39:15;98037.06;;;19.23
19102;BMP280;9683;49.028;12.064;2023-10-08T10:41:43;98038.47;;;19.26
19102;BMP280;9683;49.028;12.064;2023-10-08T10:44:11;98025.31;;;19.35
19102;BMP280;9683;49.028;12.064;2023-10-08T10:46:40;98000.38;;;19.22
19102;BMP280;9683;49.028;12.064;2023-10-08T10:49:08;98050.44;;;19.40
19102;BMP280;9683;49.028;12.064;2023-10-08T10:51:47;98035.94;;;19.46
19102;BMP280;9683;49.028;12.064;2023-10-08T10:54:16;98044.84;;;19.47
19102;BMP280;9683;49.028;12.064;2023-10-08T10:56:46;98034.81;;;19.42
19102;BMP280;9683;49.028;12.064;2023-10-08T10:59:13;98026.53;;;19.54
19102;BMP280;9683;49.028;12.064;2023-10-08T11:01:45;98027.41;;;19.64
19102;BMP280;9683;49.028;12.064;2023-10-08T11:04:17;98017.72;;;19.68
19102;BMP280;9683;49.028;12.064;2023-10-08T11:06:48;98028.84;;;19.77
19102;BMP280;9683;49.028;12.064;2023-10-08T11:09:19;98022.34;;;19.73
19102;BMP280;9683;49.028;12.064;2023-10-08T11:12:01;98013.72;;;19.81
19102;BMP280;9683;49.028;12.064;2023-10-08T11:14:36;98016.75;;;19.90
19102;BMP280;9683;49.028;12.064;2023-10-08T11:17:10;98010.81;;;19.98
19102;BMP280;9683;49.028;12.064;2023-10-08T11:19:36;98001.13;;;20.02
19102;BMP280;9683;49.028;12.064;2023-10-08T11:22:04;98006.28;;;20.13
19102;BMP280;9683;49.028;12.064;2023-10-08T11:24:33;97998.75;;;20.16
19102;BMP280;9683;49.028;12.064;2023-10-08T11:27:00;98003.34;;;20.20
19102;BMP280;9683;49.028;12.064;2023-10-08T11:29:41;98000.13;;;20.28
19102;BMP280;9683;49.028;12.064;2023-10-08T11:32:09;97985.84;;;20.33
19102;BMP280;9683;49.028;12.064;2023-10-08T11:34:38;97975.78;;;20.28
19102;BMP280;9683;49.028;12.064;2023-10-08T11:37:06;97983.59;;;20.25
19102;BMP280;9683;49.028;12.064;2023-10-08T11:39:45;98001.97;;;20.18
19102;BMP280;9683;49.028;12.064;2023-10-08T11:42:12;98000.91;;;20.19
19102;BMP280;9683;49.028;12.064;2023-10-08T11:45:04;98006.06;;;20.20
19102;BMP280;9683;49.028;12.064;2023-10-08T11:47:43;98015.03;;;20.31
19102;BMP280;9683;49.028;12.064;2023-10-08T11:50:10;98006.94;;;20.36
19102;BMP280;9683;49.028;12.064;2023-10-08T11:52:43;97996.41;;;20.44
19102;BMP280;9683;49.028;12.064;2023-10-08T11:55:11;97998.25;;;20.34
19102;BMP280;9683;49.028;12.064;2023-10-08T11:57:45;98001.25;;;20.37
19102;BMP280;9683;49.028;12.064;2023-10-08T12:00:15;97991.25;;;20.43
19102;BMP280;9683;49.028;12.064;2023-10-08T12:02:45;97995.88;;;20.47
19102;BMP280;9683;49.028;12.064;2023-10-08T12:05:12;97999.94;;;20.55
19102;BMP280;9683;49.028;12.064;2023-10-08T12:07:46;97985.59;;;20.54
19102;BMP280;9683;49.028;12.064;2023-10-08T12:10:13;97960.44;;;20.49
19102;BMP280;9683;49.028;12.064;2023-10-08T12:12:42;97972.06;;;20.49
19102;BMP280;9683;49.028;12.064;2023-10-08T12:15:11;98011.78;;;20.34
19102;BMP280;9683;49.028;12.064;2023-10-08T12:17:46;98016.34;;;20.28
19102;BMP280;9683;49.028;12.064;2023-10-08T12:20:32;98003.59;;;20.19
19102;BMP280;9683;49.028;12.064;2023-10-08T12:23:01;98027.41;;;20.22
19102;BMP280;9683;49.028;12.064;2023-10-08T12:25:28;98025.22;;;20.13
19102;BMP280;9683;49.028;12.064;2023-10-08T12:27:57;98028.47;;;20.21
19102;BMP280;9683;49.028;12.064;2023-10-08T12:30:27;98032.28;;;20.25
19102;BMP280;9683;49.028;12.064;2023-10-08T12:32:56;98030.13;;;20.27
19102;BMP280;9683;49.028;12.064;2023-10-08T12:35:22;98011.47;;;20.20
19102;BMP280;9683;49.028;12.064;2023-10-08T12:37:49;98027.44;;;20.27
19102;BMP280;9683;49.028;12.064;2023-10-08T12:40:17;98035.53;;;20.27
19102;BMP280;9683;49.028;12.064;2023-10-08T12:42:49;98023.06;;;20.16
19102;BMP280;9683;49.028;12.064;2023-10-08T12:45:16;98016.03;;;20.14
19102;BMP280;9683;49.028;12.064;2023-10-08T12:47:47;98029.63;;;20.30
19102;BMP280;9683;49.028;12.064;2023-10-08T12:50:15;98019.38;;;20.32
19102;BMP280;9683;49.028;12.064;2023-10-08T12:52:42;98016.69;;;20.42
19102;BMP280;9683;49.028;12.064;2023-10-08T12:55:19;97987.78;;;20.52
19102;BMP280;9683;49.028;12.064;2023-10-08T12:57:50;97993.72;;;20.65
19102;BMP280;9683;49.028;12.064;2023-10-08T13:00:22;97994.84;;;20.79
19102;BMP280;9683;49.028;12.064;2023-10-08T13:02:49;97981.31;;;20.94
19102;BMP280;9683;49.028;12.064;2023-10-08T13:05:19;97995.66;;;20.89
19102;BMP280;9683;49.028;12.064;2023-10-08T13:07:52;97980.19;;;21.05
19102;BMP280;9683;49.028;12.064;2023-10-08T13:10:21;97983.72;;;21.05
19102;BMP280;9683;49.028;12.064;2023-10-08T13:12:48;98005.94;;;20.97
19102;BMP280;9683;49.028;12.064;2023-10-08T13:15:15;97999.16;;;21.05
19102;BMP280;9683;49.028;12.064;2023-10-08T13:17:41;97997.84;;;21.13
19102;BMP280;9683;49.028;12.064;2023-10-08T13:20:09;98005.94;;;21.18
19102;BMP280;9683;49.028;12.064;2023-10-08T13:22:37;98003.81;;;21.25
19102;BMP280;9683;49.028;12.064;2023-10-08T13:25:04;98001.31;;;21.38
19102;BMP280;9683;49.028;12.064;2023-10-08T13:27:33;98008.91;;;21.46
19102;BMP280;9683;49.028;12.064;2023-10-08T13:30:02;98002.66;;;21.51
19102;BMP280;9683;49.028;12.064;2023-10-08T13:32:31;98003.47;;;21.57
19102;BMP280;9683;49.028;12.064;2023-10-08T13:34:57;98005.34;;;21.66
19102;BMP280;9683;49.028;12.064;2023-10-08T13:37:25;97990.16;;;21.70
19102;BMP280;9683;49.028;12.064;2023-10-08T13:39:52;98003.16;;;21.78
19102;BMP280;9683;49.028;12.064;2023-10-08T13:42:19;97991.47;;;21.83
19102;BMP280;9683;49.028;12.064;2023-10-08T13:44:47;98002.06;;;21.79
19102;BMP280;9683;49.028;12.064;2023-10-08T13:47:14;98009.94;;;21.71
19102;BMP280;9683;49.028;12.064;2023-10-08T13:49:41;97998.28;;;21.70
19102;BMP280;9683;49.028;12.064;2023-10-08T13:52:08;98006.13;;;21.72
19102;BMP280;9683;49.028;12.064;2023-10-08T13:54:35;98007.75;;;21.73
19102;BMP280;9683;49.028;12.064;2023-10-08T13:57:07;98021.56;;;21.76
19102;BMP280;9683;49.028;12.064;2023-10-08T13:59:34;98009.94;;;21.71
19102;BMP280;9683;49.028;12.064;2023-10-08T14:02:03;97987.47;;;21.55
19102;BMP280;9683;49.028;12.064;2023-10-08T14:04:39;98010.53;;;21.53
19102;BMP280;9683;49.028;12.064;2023-10-08T14:07:08;98014.59;;;21.40
19102;BMP280;9683;49.028;12.064;2023-10-08T14:09:37;98025.72;;;21.48
19102;BMP280;9683;49.028;12.064;2023-10-08T14:12:04;98019.47;;;21.43
19102;BMP280;9683;49.028;12.064;2023-10-08T14:14:32;98018.13;;;21.35
19102;BMP280;9683;49.028;12.064;2023-10-08T14:17:00;98024.66;;;21.24
19102;BMP280;9683;49.028;12.064;2023-10-08T14:19:32;98010.81;;;21.11
19102;BMP280;9683;49.028;12.064;2023-10-08T14:22:04;98010.81;;;21.11
19102;BMP280;9683;49.028;12.064;2023-10-08T14:24:34;97982.94;;;20.95
19102;BMP280;9683;49.028;12.064;2023-10-08T14:27:03;97998.38;;;21.15
19102;BMP280;9683;49.028;12.064;2023-10-08T14:29:35;98004.06;;;21.13
19102;BMP280;9683;49.028;12.064;2023-10-08T14:32:04;97995.91;;;20.88